KUNU/UNU METAR and TAF weather

Enter ICAO airport designator
Station Type Date Time Source
KUNU METAR 2021/03/08 03:35 UTC NOAA

KUNU 080335Z AUTO 15007KT 10SM CLR 03/M01 A3023 RMK AO2 T00251011


Station Type Date Time Source
KUNU Decoded METAR 2021/03/08 03:35 UTC NOAA

Juneau, Dodge County Airport, WI, United States (KUNU) 43-25-36N 088-42-12W
Mar 07, 2021 - 10:35 PM EST / 2021.03.08 0335 UTC
Wind: from the SSE (150 degrees) at 8 MPH (7 KT):0
Visibility: 10 mile(s):0
Sky conditions: clear
Temperature: 36.5 F (2.5 C)
Dew Point: 30.0 F (-1.1 C)
Relative Humidity: 77%
Pressure (altimeter): 30.23 in. Hg (1023 hPa)
ob: KUNU 080335Z AUTO 15007KT 10SM CLR 03/M01 A3023 RMK AO2 T00251011
cycle: 3

Station Type Date Time Source
KUNU TAF UTC NOAA

Error!

Example: see airport list